createdAt,value
2017-11-18T00:00:34.325Z,2.69
2017-11-18T00:03:01.841Z,2.72
2017-11-18T00:05:29.334Z,2.78
2017-11-18T00:07:56.835Z,2.87
2017-11-18T00:10:24.371Z,2.93
2017-11-18T00:12:51.912Z,3.03
2017-11-18T00:15:19.476Z,3.09
2017-11-18T00:17:47.045Z,3.12
2017-11-18T00:20:14.534Z,3.12
2017-11-18T00:22:42.145Z,3.11
2017-11-18T00:25:09.644Z,3.08
2017-11-18T00:27:37.144Z,3.07
2017-11-18T00:30:04.679Z,3.11
2017-11-18T00:32:32.181Z,3.13
2017-11-18T00:34:59.737Z,3.12
2017-11-18T00:37:27.261Z,3.09
2017-11-18T00:39:54.753Z,3.03
2017-11-18T00:42:22.333Z,2.99
2017-11-18T00:44:49.981Z,2.95
2017-11-18T00:47:17.523Z,2.91
2017-11-18T00:49:45.024Z,3.03
2017-11-18T00:52:12.674Z,3.06
2017-11-18T00:54:40.169Z,3.12
2017-11-18T00:57:07.666Z,3.12
2017-11-18T00:59:35.209Z,3.15
2017-11-18T01:02:02.807Z,3.09
2017-11-18T01:04:30.363Z,3.08
2017-11-18T01:06:58.020Z,3.08
2017-11-18T01:09:25.518Z,3.00
2017-11-18T01:11:53.133Z,2.99
2017-11-18T01:14:20.645Z,2.90
2017-11-18T01:16:48.242Z,2.85
2017-11-18T01:19:15.766Z,2.94
2017-11-18T01:21:43.302Z,2.94
2017-11-18T01:24:10.773Z,2.84
2017-11-18T01:26:38.299Z,2.78
2017-11-18T01:29:05.792Z,2.78
2017-11-18T01:31:33.313Z,2.76
2017-11-18T01:34:00.830Z,2.80
2017-11-18T01:36:28.360Z,2.76
2017-11-18T01:38:55.854Z,2.73
2017-11-18T01:41:23.436Z,2.70
2017-11-18T01:43:50.954Z,2.74
2017-11-18T01:46:18.567Z,2.77
2017-11-18T01:48:46.089Z,2.78
2017-11-18T01:51:13.590Z,2.77
2017-11-18T01:53:41.080Z,2.77
2017-11-18T01:56:08.629Z,2.76
2017-11-18T01:58:36.122Z,2.72
2017-11-18T02:01:03.617Z,2.71
2017-11-18T02:03:31.148Z,2.68
2017-11-18T02:05:58.638Z,2.64
2017-11-18T02:08:26.128Z,2.63
2017-11-18T02:10:54.240Z,2.60
2017-11-18T02:13:21.732Z,2.58
2017-11-18T02:15:49.273Z,2.53
2017-11-18T02:18:16.820Z,2.56
2017-11-18T02:20:44.317Z,2.53
2017-11-18T02:23:11.856Z,2.47
2017-11-18T02:25:39.369Z,2.44
2017-11-18T02:28:06.944Z,2.45
2017-11-18T02:30:34.470Z,2.46
2017-11-18T02:33:01.963Z,2.50
2017-11-18T02:35:29.457Z,2.49
2017-11-18T02:37:57.000Z,2.49
2017-11-18T02:40:24.500Z,2.54
2017-11-18T02:42:51.991Z,2.61
2017-11-18T02:45:19.522Z,2.62
2017-11-18T02:47:47.015Z,2.61
2017-11-18T02:50:14.509Z,2.57
2017-11-18T02:52:42.040Z,2.53
2017-11-18T02:55:09.533Z,2.49
2017-11-18T02:57:37.050Z,2.44
2017-11-18T03:00:04.604Z,2.42
2017-11-18T03:02:32.093Z,2.42
2017-11-18T03:04:59.589Z,2.45
2017-11-18T03:07:27.122Z,2.46
2017-11-18T03:09:54.629Z,2.48
2017-11-18T03:12:22.123Z,2.47
2017-11-18T03:14:49.668Z,2.46
2017-11-18T03:17:17.224Z,2.49
2017-11-18T03:19:44.717Z,2.48
2017-11-18T03:22:12.335Z,2.51
2017-11-18T03:24:39.890Z,2.59
2017-11-18T03:27:07.413Z,2.71
2017-11-18T03:29:34.901Z,2.81
2017-11-18T03:32:02.493Z,2.91
2017-11-18T03:34:30.017Z,2.95
2017-11-18T03:36:57.595Z,2.97
2017-11-18T03:39:25.089Z,2.96
2017-11-18T03:41:52.714Z,3.01
2017-11-18T03:44:20.205Z,2.98
2017-11-18T03:46:47.708Z,3.01
2017-11-18T03:49:15.281Z,3.07
2017-11-18T03:51:42.770Z,3.12
2017-11-18T03:54:10.259Z,3.15
2017-11-18T03:56:37.862Z,3.11
2017-11-18T03:59:05.362Z,3.08
2017-11-18T04:01:32.856Z,3.16
2017-11-18T04:04:00.376Z,3.18
2017-11-18T04:06:27.864Z,3.19
2017-11-18T04:08:55.453Z,3.19
2017-11-18T04:11:23.011Z,3.19
2017-11-18T04:13:50.506Z,3.23
2017-11-18T04:16:17.998Z,3.27
2017-11-18T04:18:45.516Z,3.29
2017-11-18T04:21:13.013Z,3.31
2017-11-18T04:23:40.535Z,3.35
2017-11-18T04:26:08.030Z,3.34
2017-11-18T04:28:35.563Z,3.35
2017-11-18T04:31:03.053Z,3.36
2017-11-18T04:33:30.650Z,3.36
2017-11-18T04:35:58.160Z,3.38
2017-11-18T04:38:25.693Z,3.39
2017-11-18T04:40:53.189Z,3.42
2017-11-18T04:43:20.685Z,3.43
2017-11-18T04:45:48.214Z,3.41
2017-11-18T04:48:15.786Z,3.41
2017-11-18T04:50:43.279Z,3.42
2017-11-18T04:53:10.797Z,3.38
2017-11-18T04:55:38.288Z,3.43
2017-11-18T04:58:05.775Z,3.42
2017-11-18T05:00:33.381Z,3.50
2017-11-18T05:03:00.908Z,3.48
2017-11-18T05:05:28.397Z,3.50
2017-11-18T05:07:55.889Z,3.49
2017-11-18T05:10:23.418Z,3.47
2017-11-18T05:12:50.921Z,3.51
2017-11-18T05:15:18.417Z,3.53
2017-11-18T05:17:45.990Z,3.54
2017-11-18T05:20:13.481Z,3.58
2017-11-18T05:22:40.972Z,3.58
2017-11-18T05:25:08.499Z,3.56
2017-11-18T05:27:36.029Z,3.60
2017-11-18T05:30:03.518Z,3.62
2017-11-18T05:32:31.093Z,3.60
2017-11-18T05:34:58.580Z,3.62
2017-11-18T05:37:26.137Z,3.60
2017-11-18T05:39:53.663Z,3.60
2017-11-18T05:42:21.145Z,3.61
2017-11-18T05:44:48.641Z,3.65
2017-11-18T05:47:16.285Z,3.68
2017-11-18T05:49:43.799Z,3.67
2017-11-18T05:52:11.289Z,3.67
2017-11-18T05:54:38.865Z,3.66
2017-11-18T05:57:06.357Z,3.66
2017-11-18T05:59:33.845Z,3.64
2017-11-18T06:02:01.371Z,3.62
2017-11-18T06:04:28.884Z,3.64
2017-11-18T06:06:56.373Z,3.66
2017-11-18T06:09:23.914Z,3.66
2017-11-18T06:11:51.397Z,3.65
2017-11-18T06:14:18.887Z,3.63
2017-11-18T06:16:46.482Z,3.59
2017-11-18T06:19:13.963Z,3.53
2017-11-18T06:21:41.459Z,3.49
2017-11-18T06:24:08.998Z,3.40
2017-11-18T06:26:36.497Z,3.35
2017-11-18T06:29:03.980Z,3.37
2017-11-18T06:31:31.513Z,3.40
2017-11-18T06:33:59.094Z,3.43
2017-11-18T06:36:26.656Z,3.44
2017-11-18T06:38:54.187Z,3.42
2017-11-18T06:41:21.682Z,3.36
2017-11-18T06:43:49.168Z,3.31
2017-11-18T06:46:16.710Z,3.30
2017-11-18T06:48:44.196Z,3.30
2017-11-18T06:51:11.681Z,3.28
2017-11-18T06:53:39.264Z,3.22
2017-11-18T06:56:06.776Z,3.15
2017-11-18T06:58:34.270Z,3.12
2017-11-18T07:01:01.802Z,3.10
2017-11-18T07:03:29.396Z,3.09
2017-11-18T07:05:56.888Z,3.09
2017-11-18T07:08:24.413Z,3.10
2017-11-18T07:10:51.919Z,3.08
2017-11-18T07:13:19.405Z,3.04
2017-11-18T07:15:46.989Z,3.01
2017-11-18T07:18:14.477Z,3.03
2017-11-18T07:20:41.964Z,3.06
2017-11-18T07:23:09.505Z,3.08
2017-11-18T07:25:36.991Z,3.09
2017-11-18T07:28:04.474Z,3.17
2017-11-18T07:30:32.012Z,3.27
2017-11-18T07:32:59.504Z,3.40
2017-11-18T07:35:26.988Z,3.61
2017-11-18T07:37:54.504Z,3.77
2017-11-18T07:40:21.994Z,3.88
2017-11-18T07:42:49.525Z,3.96
2017-11-18T07:45:17.012Z,4.01
2017-11-18T07:47:44.513Z,4.09
2017-11-18T07:50:12.034Z,4.13
2017-11-18T07:52:39.765Z,4.20
2017-11-18T07:55:07.260Z,4.27
2017-11-18T07:57:34.808Z,4.29
2017-11-18T08:00:02.320Z,4.39
2017-11-18T08:02:29.809Z,4.43
2017-11-18T08:04:57.341Z,4.47
2017-11-18T08:07:24.835Z,4.45
2017-11-18T08:09:52.326Z,4.48
2017-11-18T08:12:19.858Z,4.49
2017-11-18T08:14:47.361Z,4.49
2017-11-18T08:17:14.863Z,4.50
2017-11-18T08:19:42.408Z,4.57
2017-11-18T08:22:09.970Z,4.59
2017-11-18T08:24:37.567Z,4.58
2017-11-18T08:27:05.068Z,4.60
2017-11-18T08:29:32.669Z,4.62
2017-11-18T08:32:00.227Z,4.70
2017-11-18T08:34:27.751Z,4.79
2017-11-18T08:36:55.250Z,4.84
2017-11-18T08:39:22.741Z,4.86
2017-11-18T08:41:50.257Z,4.89
2017-11-18T08:44:17.759Z,4.91
2017-11-18T08:46:45.251Z,4.90
2017-11-18T08:49:12.786Z,4.93
2017-11-18T08:51:40.289Z,4.97
2017-11-18T08:54:07.768Z,4.98
2017-11-18T08:56:35.302Z,4.99
2017-11-18T08:59:02.793Z,4.99
2017-11-18T09:01:30.297Z,5.00
2017-11-18T09:03:57.821Z,5.05
2017-11-18T09:06:25.341Z,5.08
2017-11-18T09:08:52.840Z,5.10
2017-11-18T09:11:20.363Z,5.09
2017-11-18T09:13:47.860Z,5.12
2017-11-18T09:16:15.349Z,5.09
2017-11-18T09:18:42.885Z,5.14
2017-11-18T09:21:10.383Z,5.11
2017-11-18T09:23:37.924Z,5.17
2017-11-18T09:26:05.459Z,5.23
2017-11-18T09:28:32.948Z,5.34
2017-11-18T09:31:00.716Z,5.40
2017-11-18T09:33:28.236Z,5.39
2017-11-18T09:35:55.726Z,5.42
2017-11-18T09:38:23.282Z,5.38
2017-11-18T09:40:50.860Z,5.44
2017-11-18T09:43:18.362Z,5.42
2017-11-18T09:45:45.846Z,5.38
2017-11-18T09:48:13.389Z,5.40
2017-11-18T09:50:40.894Z,5.42
2017-11-18T09:53:08.390Z,5.47
2017-11-18T09:55:35.925Z,5.53
2017-11-18T09:58:03.413Z,5.58
2017-11-18T10:00:30.925Z,5.60
2017-11-18T10:02:58.465Z,5.59
2017-11-18T10:05:25.957Z,5.59
2017-11-18T10:07:53.479Z,5.60
2017-11-18T10:10:21.000Z,5.64
2017-11-18T10:12:48.485Z,5.65
2017-11-18T10:15:15.964Z,5.68
2017-11-18T10:17:43.537Z,5.70
2017-11-18T10:20:11.073Z,5.70
2017-11-18T10:22:38.733Z,5.73
2017-11-18T10:25:06.271Z,5.72
2017-11-18T10:27:33.844Z,5.72
2017-11-18T10:30:01.409Z,5.74
2017-11-18T10:32:28.953Z,5.73
2017-11-18T10:34:56.443Z,5.67
2017-11-18T10:37:23.939Z,5.63
2017-11-18T10:39:51.550Z,5.57
2017-11-18T10:42:19.037Z,5.55
2017-11-18T10:44:46.522Z,5.57
2017-11-18T10:47:14.056Z,5.62
2017-11-18T10:49:41.559Z,5.66
2017-11-18T10:52:09.046Z,5.62
2017-11-18T10:54:36.588Z,5.59
2017-11-18T10:57:04.081Z,5.62
2017-11-18T10:59:31.565Z,5.64
2017-11-18T11:01:59.089Z,5.57
2017-11-18T11:04:26.577Z,5.57
2017-11-18T11:06:54.073Z,5.54
2017-11-18T11:09:21.603Z,5.53
2017-11-18T11:11:49.097Z,5.55
2017-11-18T11:14:16.681Z,5.57
2017-11-18T11:16:44.205Z,5.59
2017-11-18T11:19:11.695Z,5.65
2017-11-18T11:21:39.188Z,5.62
2017-11-18T11:24:06.777Z,5.63
2017-11-18T11:26:34.264Z,5.66
2017-11-18T11:29:01.804Z,5.68
2017-11-18T11:31:29.333Z,5.70
2017-11-18T11:33:56.821Z,5.70
2017-11-18T11:36:24.309Z,5.74
2017-11-18T11:38:51.865Z,5.75
2017-11-18T11:41:19.382Z,5.78
2017-11-18T11:43:46.947Z,5.82
2017-11-18T11:46:14.516Z,5.89
2017-11-18T11:48:42.052Z,5.96
2017-11-18T11:51:09.544Z,5.94
2017-11-18T11:53:37.041Z,5.98
2017-11-18T11:56:04.578Z,6.07
2017-11-18T11:58:32.075Z,6.06
2017-11-18T12:00:59.569Z,6.13
2017-11-18T12:03:27.136Z,6.25
2017-11-18T12:05:54.629Z,6.33
2017-11-18T12:08:22.123Z,6.25
2017-11-18T12:10:49.714Z,6.48
2017-11-18T12:13:17.202Z,6.68
2017-11-18T12:15:44.699Z,6.71
2017-11-18T12:18:12.330Z,6.61
2017-11-18T12:20:39.810Z,6.55
2017-11-18T12:23:07.284Z,6.47
2017-11-18T12:25:34.878Z,6.47
2017-11-18T12:28:02.377Z,6.51
2017-11-18T12:30:29.968Z,6.52
2017-11-18T12:32:57.481Z,6.53
2017-11-18T12:35:24.968Z,6.54
2017-11-18T12:37:52.553Z,6.50
2017-11-18T12:40:20.049Z,6.57
2017-11-18T12:42:47.552Z,6.57
2017-11-18T12:45:15.071Z,6.67
2017-11-18T12:47:42.565Z,6.70
2017-11-18T12:50:10.151Z,6.68
2017-11-18T12:52:37.815Z,6.65
2017-11-18T12:55:05.301Z,6.65
2017-11-18T12:57:32.796Z,6.55
2017-11-18T13:00:00.406Z,6.44
2017-11-18T13:02:27.885Z,6.39
2017-11-18T13:04:55.374Z,6.40
2017-11-18T13:07:22.957Z,6.43
2017-11-18T13:09:50.466Z,6.39
2017-11-18T13:12:18.000Z,6.34
2017-11-18T13:14:45.560Z,6.23
2017-11-18T13:17:13.047Z,6.28
2017-11-18T13:19:40.529Z,6.29
2017-11-18T13:22:08.058Z,6.31
2017-11-18T13:24:35.555Z,6.36
2017-11-18T13:27:03.060Z,6.35
2017-11-18T13:29:30.584Z,6.37
2017-11-18T13:31:58.079Z,6.35
2017-11-18T13:34:25.576Z,6.36
2017-11-18T13:36:53.109Z,6.37
2017-11-18T13:39:20.593Z,6.41
2017-11-18T13:41:48.092Z,6.39
2017-11-18T13:44:15.614Z,6.32
2017-11-18T13:46:43.112Z,6.30
2017-11-18T13:49:10.667Z,6.31
2017-11-18T13:51:38.309Z,6.34
2017-11-18T13:54:05.873Z,6.34
2017-11-18T13:56:33.361Z,6.35
2017-11-18T13:59:00.891Z,6.36
2017-11-18T14:01:28.380Z,6.31
2017-11-18T14:03:55.873Z,6.28
2017-11-18T14:06:23.402Z,6.23
2017-11-18T14:08:50.895Z,6.24
2017-11-18T14:11:18.387Z,6.22
2017-11-18T14:13:45.930Z,6.19
2017-11-18T14:16:13.411Z,6.20
2017-11-18T14:18:40.909Z,6.16
2017-11-18T14:21:08.438Z,6.13
2017-11-18T14:23:35.962Z,6.15
2017-11-18T14:26:03.465Z,6.17
2017-11-18T14:28:30.986Z,6.20
2017-11-18T14:30:58.497Z,6.18
2017-11-18T14:33:25.997Z,6.19
2017-11-18T14:35:53.534Z,6.13
2017-11-18T14:38:21.023Z,5.98
2017-11-18T14:40:48.510Z,5.92
2017-11-18T14:43:16.037Z,5.87
2017-11-18T14:45:43.536Z,5.85
2017-11-18T14:48:11.028Z,5.84
2017-11-18T14:50:38.564Z,5.88
2017-11-18T14:53:06.083Z,5.90
2017-11-18T14:55:33.564Z,5.86
2017-11-18T14:58:01.086Z,5.80
2017-11-18T15:00:28.578Z,5.69
2017-11-18T15:02:56.072Z,5.65
2017-11-18T15:05:23.592Z,5.62
2017-11-18T15:07:51.086Z,5.58
2017-11-18T15:10:18.575Z,5.59
2017-11-18T15:12:46.088Z,5.57
2017-11-18T15:15:13.921Z,5.47
2017-11-18T15:17:47.001Z,5.35
2017-11-18T15:20:20.270Z,5.16
2017-11-18T15:22:53.518Z,4.98
2017-11-18T15:25:26.607Z,4.84
2017-11-18T15:31:11.023Z,4.75
2017-11-18T15:33:44.183Z,4.71
2017-11-18T15:36:17.380Z,4.75
2017-11-18T15:38:46.268Z,4.77
2017-11-18T15:41:13.758Z,4.75
2017-11-18T15:43:46.889Z,4.74
2017-11-18T15:46:14.383Z,4.71
2017-11-18T15:48:47.605Z,4.79
2017-11-18T15:54:37.179Z,4.78
2017-11-18T15:57:15.523Z,4.78
2017-11-18T15:59:43.016Z,4.84
2017-11-18T16:02:16.247Z,4.89
2017-11-18T16:04:43.773Z,4.87
2017-11-18T16:07:22.071Z,4.81
2017-11-18T16:09:49.604Z,4.81
2017-11-18T16:12:17.088Z,4.85
2017-11-18T16:14:44.578Z,4.80
2017-11-18T16:17:12.169Z,4.69
2017-11-18T16:19:39.667Z,4.52
2017-11-18T16:22:07.154Z,4.36
2017-11-18T16:24:34.695Z,4.35
2017-11-18T16:27:02.188Z,4.32
2017-11-18T16:29:29.679Z,4.31
2017-11-18T16:31:57.212Z,4.21
2017-11-18T16:34:24.696Z,4.28
2017-11-18T16:36:52.185Z,4.33
2017-11-18T16:39:19.722Z,4.37
2017-11-18T16:41:47.219Z,4.44
2017-11-18T16:44:14.707Z,4.45
2017-11-18T16:46:42.260Z,4.47
2017-11-18T16:49:09.766Z,4.51
2017-11-18T16:51:37.379Z,4.47
2017-11-18T16:54:04.870Z,4.48
2017-11-18T16:56:32.361Z,4.49
2017-11-18T16:58:59.906Z,4.46
2017-11-18T17:01:27.393Z,4.46
2017-11-18T17:03:54.973Z,4.42
2017-11-18T17:06:22.558Z,4.38
2017-11-18T17:08:50.097Z,4.37
2017-11-18T17:11:17.590Z,4.38
2017-11-18T17:13:45.231Z,4.41
2017-11-18T17:16:12.724Z,4.46
2017-11-18T17:18:40.265Z,4.41
2017-11-18T17:21:07.800Z,4.43
2017-11-18T17:23:35.294Z,4.44
2017-11-18T17:26:02.820Z,4.50
2017-11-18T17:28:30.372Z,4.48
2017-11-18T17:30:57.945Z,4.45
2017-11-18T17:33:25.466Z,4.48
2017-11-18T17:35:53.013Z,4.49
2017-11-18T17:38:20.511Z,4.49
2017-11-18T17:40:48.009Z,4.46
2017-11-18T17:43:15.544Z,4.44
2017-11-18T17:45:43.071Z,4.42
2017-11-18T17:48:10.581Z,4.41
2017-11-18T17:50:38.098Z,4.40
2017-11-18T17:53:05.595Z,4.41
2017-11-18T17:55:33.127Z,4.47
2017-11-18T17:58:00.626Z,4.50
2017-11-18T18:00:28.144Z,4.56
2017-11-18T18:02:55.672Z,4.60
2017-11-18T18:05:23.246Z,4.59
2017-11-18T18:07:50.809Z,4.61
2017-11-18T18:10:18.337Z,4.66
2017-11-18T18:12:45.939Z,4.65
2017-11-18T18:15:13.504Z,4.65
2017-11-18T18:17:41.052Z,4.60
2017-11-18T18:20:08.586Z,4.54
2017-11-18T18:22:36.077Z,4.61
2017-11-18T18:25:03.575Z,4.59
2017-11-18T18:27:31.123Z,4.55
2017-11-18T18:29:58.637Z,4.50
2017-11-18T18:32:26.130Z,4.46
2017-11-18T18:34:53.657Z,4.46
2017-11-18T18:37:21.149Z,4.53
2017-11-18T18:39:48.684Z,4.59
2017-11-18T18:42:16.342Z,4.59
2017-11-18T18:44:43.844Z,4.61
2017-11-18T18:47:11.370Z,4.64
2017-11-18T18:49:39.025Z,4.64
2017-11-18T18:52:06.522Z,4.64
2017-11-18T18:54:34.044Z,4.70
2017-11-18T18:57:01.584Z,4.64
2017-11-18T18:59:29.160Z,4.69
2017-11-18T19:01:56.664Z,4.75
2017-11-18T19:04:24.186Z,4.69
2017-11-18T19:06:51.683Z,4.68
2017-11-18T19:09:19.224Z,4.68
2017-11-18T19:11:46.836Z,4.57
2017-11-18T19:14:14.425Z,4.55
2017-11-18T19:16:41.915Z,4.48
2017-11-18T19:19:09.453Z,4.52
2017-11-18T19:21:36.943Z,4.47
2017-11-18T19:24:04.433Z,4.47
2017-11-18T19:26:32.008Z,4.49
2017-11-18T19:28:59.644Z,4.52
2017-11-18T19:31:27.200Z,4.45
2017-11-18T19:33:54.768Z,4.34
2017-11-18T19:36:22.302Z,4.35
2017-11-18T19:38:49.795Z,4.40
2017-11-18T19:41:17.313Z,4.42
2017-11-18T19:43:44.868Z,4.42
2017-11-18T19:46:12.363Z,4.34
2017-11-18T19:48:39.858Z,4.32
2017-11-18T19:51:07.482Z,4.34
2017-11-18T19:53:34.987Z,4.32
2017-11-18T19:56:02.477Z,4.35
2017-11-18T19:58:30.005Z,4.34
2017-11-18T20:00:57.509Z,4.34
2017-11-18T20:03:25.191Z,4.32
2017-11-18T20:05:52.822Z,4.35
2017-11-18T20:08:20.421Z,4.36
2017-11-18T20:10:48.125Z,4.37
2017-11-18T20:13:15.946Z,4.38
2017-11-18T20:15:43.810Z,4.36
2017-11-18T20:18:11.568Z,4.41
2017-11-18T20:20:39.232Z,4.39
2017-11-18T20:23:06.893Z,4.37
2017-11-18T20:25:34.459Z,4.37
2017-11-18T20:28:02.116Z,4.31
2017-11-18T20:30:29.717Z,4.25
2017-11-18T20:32:57.441Z,4.26
2017-11-18T20:35:25.197Z,4.24
2017-11-18T20:37:52.697Z,4.27
2017-11-18T20:40:20.194Z,4.22
2017-11-18T20:42:47.718Z,4.18
2017-11-18T20:45:15.212Z,4.14
2017-11-18T20:47:42.858Z,4.11
2017-11-18T20:50:10.502Z,4.12
2017-11-18T20:52:38.048Z,4.07
2017-11-18T20:55:05.891Z,4.11
2017-11-18T20:57:33.422Z,4.15
2017-11-18T21:00:00.931Z,4.20
2017-11-18T21:02:28.560Z,4.24
2017-11-18T21:04:56.133Z,4.33
2017-11-18T21:07:23.624Z,4.41
2017-11-18T21:09:51.211Z,4.37
2017-11-18T21:12:18.712Z,4.40
2017-11-18T21:14:46.357Z,4.43
2017-11-18T21:17:13.874Z,4.41
2017-11-18T21:19:41.534Z,4.45
2017-11-18T21:22:09.224Z,4.45
2017-11-18T21:24:36.876Z,4.46
2017-11-18T21:27:04.610Z,4.47
2017-11-18T21:29:32.162Z,4.45
2017-11-18T21:31:59.761Z,4.38
2017-11-18T21:34:27.252Z,4.33
2017-11-18T21:36:55.025Z,4.34
2017-11-18T21:39:22.664Z,4.31
2017-11-18T21:41:50.354Z,4.31
2017-11-18T21:44:17.887Z,4.32
2017-11-18T21:46:45.394Z,4.34
2017-11-18T21:49:12.912Z,4.35
2017-11-18T21:51:40.470Z,4.34
2017-11-18T21:54:08.023Z,4.34
2017-11-18T21:56:35.545Z,4.36
2017-11-18T21:59:03.142Z,4.43
2017-11-18T22:01:30.670Z,4.41
2017-11-18T22:03:58.191Z,4.42
2017-11-18T22:06:25.778Z,4.36
2017-11-18T22:08:53.279Z,4.32
2017-11-18T22:11:20.961Z,4.30
2017-11-18T22:13:48.908Z,4.30
2017-11-18T22:16:16.441Z,4.28
2017-11-18T22:18:44.015Z,4.35
2017-11-18T22:21:11.893Z,4.29
2017-11-18T22:23:39.451Z,4.26
2017-11-18T22:26:06.949Z,4.33
2017-11-18T22:28:34.554Z,4.35
2017-11-18T22:31:02.214Z,4.38
2017-11-18T22:33:29.708Z,4.31
2017-11-18T22:35:57.215Z,4.31
2017-11-18T22:38:24.745Z,4.29
2017-11-18T22:40:52.352Z,4.30
2017-11-18T22:43:19.854Z,4.28
2017-11-18T22:45:47.384Z,4.19
2017-11-18T22:48:14.885Z,4.23
2017-11-18T22:50:42.371Z,4.31
2017-11-18T22:53:09.896Z,4.37
2017-11-18T22:55:37.402Z,4.39
2017-11-18T22:58:04.958Z,4.41
2017-11-18T23:00:41.324Z,4.39
2017-11-18T23:03:08.853Z,4.38
2017-11-18T23:05:36.349Z,4.38
2017-11-18T23:08:03.862Z,4.40
2017-11-18T23:10:31.576Z,4.36
2017-11-18T23:12:59.075Z,4.41
2017-11-18T23:15:26.584Z,4.46
2017-11-18T23:17:54.123Z,4.50
2017-11-18T23:20:21.612Z,4.50
2017-11-18T23:22:49.101Z,4.52
2017-11-18T23:25:16.709Z,4.49
2017-11-18T23:27:44.198Z,4.52
2017-11-18T23:30:11.702Z,4.54
2017-11-18T23:32:39.230Z,4.55
2017-11-18T23:35:06.718Z,4.52
2017-11-18T23:37:34.311Z,4.51
2017-11-18T23:40:01.857Z,4.53
2017-11-18T23:42:29.349Z,4.54
2017-11-18T23:44:56.845Z,4.52
2017-11-18T23:47:24.442Z,4.49
2017-11-18T23:49:51.938Z,4.48
2017-11-18T23:52:19.472Z,4.50
2017-11-18T23:54:47.035Z,4.53
2017-11-18T23:57:14.522Z,4.55
2017-11-18T23:59:42.030Z,4.58
